createdAt,value
2017-02-02T00:00:04.725Z,877.56
2017-02-02T00:00:34.751Z,877.6
2017-02-02T00:01:04.785Z,877.6
2017-02-02T00:01:34.817Z,877.58
2017-02-02T00:02:04.845Z,877.55
2017-02-02T00:02:34.875Z,877.54
2017-02-02T00:03:04.908Z,877.51
2017-02-02T00:03:34.937Z,877.5
2017-02-02T00:04:05.418Z,877.42
2017-02-02T00:04:34.998Z,877.42
2017-02-02T00:05:05.029Z,877.38
2017-02-02T00:05:35.060Z,877.42
2017-02-02T00:06:05.090Z,877.37
2017-02-02T00:06:35.119Z,877.41
2017-02-02T00:07:05.153Z,877.41
2017-02-02T00:07:35.181Z,877.38
2017-02-02T00:08:05.212Z,877.38
2017-02-02T00:08:35.243Z,877.34
2017-02-02T00:09:05.272Z,877.35
2017-02-02T00:09:35.304Z,877.27
2017-02-02T00:10:05.335Z,877.3
2017-02-02T00:10:35.366Z,877.29
2017-02-02T00:11:05.395Z,877.23
2017-02-02T00:11:35.426Z,877.27
2017-02-02T00:12:05.457Z,877.2
2017-02-02T00:12:35.492Z,877.21
2017-02-02T00:13:05.515Z,877.21
2017-02-02T00:13:35.547Z,877.21
2017-02-02T00:14:05.578Z,877.22
2017-02-02T00:14:35.609Z,877.17
2017-02-02T00:15:05.639Z,877.23
2017-02-02T00:15:35.670Z,877.23
2017-02-02T00:16:05.702Z,877.17
2017-02-02T00:16:35.734Z,877.2
2017-02-02T00:17:05.766Z,877.24
2017-02-02T00:17:35.793Z,877.24
2017-02-02T00:18:05.825Z,877.23
2017-02-02T00:18:35.855Z,877.26
2017-02-02T00:19:05.885Z,877.27
2017-02-02T00:19:35.917Z,877.28
2017-02-02T00:20:05.947Z,877.25
2017-02-02T00:20:35.975Z,877.31
2017-02-02T00:21:06.007Z,877.31
2017-02-02T00:21:36.038Z,877.36
2017-02-02T00:22:06.093Z,877.36
2017-02-02T00:22:36.099Z,877.38
2017-02-02T00:23:06.129Z,877.27
2017-02-02T00:23:36.180Z,877.29
2017-02-02T00:24:06.190Z,877.41
2017-02-02T00:24:36.523Z,877.45
2017-02-02T00:25:06.254Z,877.51
2017-02-02T00:25:36.285Z,877.47
2017-02-02T00:26:06.314Z,877.48
2017-02-02T00:26:36.347Z,877.39
2017-02-02T00:27:06.372Z,877.52
2017-02-02T00:27:36.406Z,877.49
2017-02-02T00:28:06.437Z,877.52
2017-02-02T00:28:36.467Z,877.51
2017-02-02T00:29:06.498Z,877.54
2017-02-02T00:29:36.527Z,877.51
2017-02-02T00:30:06.560Z,877.52
2017-02-02T00:30:36.589Z,877.51
2017-02-02T00:31:06.620Z,877.53
2017-02-02T00:31:36.655Z,877.43
2017-02-02T00:32:06.679Z,877.46
2017-02-02T00:32:36.714Z,877.5
2017-02-02T00:33:06.743Z,877.5
2017-02-02T00:33:36.770Z,877.5
2017-02-02T00:34:06.802Z,877.46
2017-02-02T00:34:36.832Z,877.48
2017-02-02T00:35:06.864Z,877.47
2017-02-02T00:35:36.892Z,877.45
2017-02-02T00:36:06.927Z,877.43
2017-02-02T00:36:36.959Z,877.45
2017-02-02T00:37:06.988Z,877.43
2017-02-02T00:37:37.018Z,877.43
2017-02-02T00:38:07.049Z,877.49
2017-02-02T00:38:37.078Z,877.44
2017-02-02T00:39:07.111Z,877.46
2017-02-02T00:39:37.143Z,877.42
2017-02-02T00:40:07.172Z,877.48
2017-02-02T00:40:37.204Z,877.53
2017-02-02T00:41:07.233Z,877.47
2017-02-02T00:41:37.265Z,877.44
2017-02-02T00:42:07.294Z,877.37
2017-02-02T00:42:37.326Z,877.38
2017-02-02T00:43:07.357Z,877.39
2017-02-02T00:43:37.388Z,877.4
2017-02-02T00:44:07.416Z,877.39
2017-02-02T00:44:37.447Z,877.35
2017-02-02T00:45:07.479Z,877.33
2017-02-02T00:45:37.508Z,877.36
2017-02-02T00:46:07.540Z,877.35
2017-02-02T00:46:37.574Z,877.37
2017-02-02T00:47:07.601Z,877.32
2017-02-02T00:47:37.632Z,877.43
2017-02-02T00:48:07.660Z,877.35
2017-02-02T00:48:37.692Z,877.4
2017-02-02T00:49:07.723Z,877.45
2017-02-02T00:49:37.756Z,877.39
2017-02-02T00:50:08.134Z,877.4
2017-02-02T00:50:37.816Z,877.46
2017-02-02T00:51:07.845Z,877.49
2017-02-02T00:51:37.875Z,877.55
2017-02-02T00:52:07.905Z,877.57
2017-02-02T00:52:37.939Z,877.52
2017-02-02T00:53:07.969Z,877.55
2017-02-02T00:53:37.999Z,877.53
2017-02-02T00:54:08.028Z,877.48
2017-02-02T00:54:38.060Z,877.49
2017-02-02T00:55:08.093Z,877.43
2017-02-02T00:55:38.121Z,877.38
2017-02-02T00:56:08.152Z,877.32
2017-02-02T00:56:38.183Z,877.27
2017-02-02T00:57:08.216Z,877.21
2017-02-02T00:57:38.243Z,877.21
2017-02-02T00:58:08.275Z,877.15
2017-02-02T00:58:38.304Z,877.12
2017-02-02T00:59:08.333Z,877.08
2017-02-02T00:59:38.365Z,877.06
2017-02-02T01:00:08.397Z,877.02
2017-02-02T01:00:38.427Z,876.99
2017-02-02T01:01:08.458Z,876.95
2017-02-02T01:01:38.488Z,876.89
2017-02-02T01:02:08.517Z,876.84
2017-02-02T01:02:38.549Z,876.85
2017-02-02T01:03:08.580Z,876.77
2017-02-02T01:03:38.612Z,876.77
2017-02-02T01:04:08.641Z,876.79
2017-02-02T01:04:38.672Z,876.79
2017-02-02T01:05:08.702Z,876.73
2017-02-02T01:05:38.733Z,876.72
2017-02-02T01:06:08.764Z,876.66
2017-02-02T01:06:38.793Z,876.62
2017-02-02T01:07:08.825Z,876.67
2017-02-02T01:07:38.855Z,876.61
2017-02-02T01:08:08.886Z,876.57
2017-02-02T01:08:38.916Z,876.57
2017-02-02T01:09:08.943Z,876.56
2017-02-02T01:09:38.976Z,876.48
2017-02-02T01:10:09.006Z,876.5
2017-02-02T01:10:39.338Z,876.46
2017-02-02T01:11:09.069Z,876.45
2017-02-02T01:11:39.097Z,876.41
2017-02-02T01:12:09.127Z,876.45
2017-02-02T01:12:39.159Z,876.42
2017-02-02T01:13:09.188Z,876.42
2017-02-02T01:13:39.219Z,876.39
2017-02-02T01:14:09.249Z,876.45
2017-02-02T01:14:39.279Z,876.43
2017-02-02T01:15:09.311Z,876.47
2017-02-02T01:15:39.340Z,876.46
2017-02-02T01:16:09.370Z,876.5
2017-02-02T01:16:39.402Z,876.5
2017-02-02T01:17:09.430Z,876.52
2017-02-02T01:17:39.462Z,876.57
2017-02-02T01:18:09.493Z,876.53
2017-02-02T01:18:39.523Z,876.49
2017-02-02T01:19:09.553Z,876.59
2017-02-02T01:19:39.584Z,876.61
2017-02-02T01:20:09.615Z,876.63
2017-02-02T01:20:39.647Z,876.69
2017-02-02T01:21:09.678Z,876.65
2017-02-02T01:21:39.707Z,876.73
2017-02-02T01:22:09.738Z,876.74
2017-02-02T01:22:39.765Z,876.79
2017-02-02T01:23:09.796Z,876.83
2017-02-02T01:23:39.824Z,876.85
2017-02-02T01:24:09.857Z,876.9
2017-02-02T01:24:39.890Z,876.95
2017-02-02T01:25:09.919Z,876.97
2017-02-02T01:25:39.951Z,876.99
2017-02-02T01:26:09.982Z,876.95
2017-02-02T01:26:40.012Z,877.01
2017-02-02T01:27:10.044Z,877.1
2017-02-02T01:27:40.073Z,877.13
2017-02-02T01:28:10.105Z,877.13
2017-02-02T01:28:40.135Z,877.13
2017-02-02T01:29:10.164Z,877.16
2017-02-02T01:29:40.197Z,877.15
2017-02-02T01:30:10.226Z,877.18
2017-02-02T01:30:40.257Z,877.17
2017-02-02T01:31:10.287Z,877.25
2017-02-02T01:31:40.317Z,877.22
2017-02-02T01:32:10.347Z,877.24
2017-02-02T01:32:40.378Z,877.24
2017-02-02T01:33:10.409Z,877.25
2017-02-02T01:33:40.440Z,877.29
2017-02-02T01:34:10.474Z,877.31
2017-02-02T01:34:40.499Z,877.27
2017-02-02T01:35:10.532Z,877.38
2017-02-02T01:35:40.564Z,877.36
2017-02-02T01:36:10.842Z,877.39
2017-02-02T01:36:40.624Z,877.39
2017-02-02T01:37:10.657Z,877.37
2017-02-02T01:37:40.684Z,877.42
2017-02-02T01:38:10.714Z,877.37
2017-02-02T01:38:40.747Z,877.41
2017-02-02T01:39:10.777Z,877.39
2017-02-02T01:39:40.808Z,877.46
2017-02-02T01:40:10.837Z,877.49
2017-02-02T01:40:40.870Z,877.5
2017-02-02T01:41:10.899Z,877.51
2017-02-02T01:41:40.928Z,877.53
2017-02-02T01:42:10.959Z,877.56
2017-02-02T01:42:40.989Z,877.56
2017-02-02T01:43:11.025Z,877.57
2017-02-02T01:43:41.052Z,877.51
2017-02-02T01:44:11.087Z,877.6
2017-02-02T01:44:41.112Z,877.62
2017-02-02T01:45:11.148Z,877.66
2017-02-02T01:45:41.174Z,877.67
2017-02-02T01:46:11.203Z,877.71
2017-02-02T01:46:41.235Z,877.73
2017-02-02T01:47:11.267Z,877.75
2017-02-02T01:47:41.297Z,877.74
2017-02-02T01:48:11.329Z,877.7
2017-02-02T01:48:41.362Z,877.77
2017-02-02T01:49:11.389Z,877.78
2017-02-02T01:49:41.419Z,877.73
2017-02-02T01:50:11.452Z,877.78
2017-02-02T01:50:41.483Z,877.73
2017-02-02T01:51:11.518Z,877.82
2017-02-02T01:51:41.544Z,877.78
2017-02-02T01:52:11.574Z,877.79
2017-02-02T01:52:41.606Z,877.8
2017-02-02T01:53:11.637Z,877.79
2017-02-02T01:53:41.665Z,877.77
2017-02-02T01:54:11.695Z,877.82
2017-02-02T01:54:41.727Z,877.81
2017-02-02T01:55:11.757Z,877.84
2017-02-02T01:55:41.788Z,877.84
2017-02-02T01:56:11.818Z,877.86
2017-02-02T01:56:41.848Z,877.83
2017-02-02T01:57:11.880Z,877.82
2017-02-02T01:57:41.919Z,877.79
2017-02-02T01:58:11.942Z,877.74
2017-02-02T01:58:41.974Z,877.76
2017-02-02T01:59:12.005Z,877.78
2017-02-02T01:59:42.034Z,877.79
2017-02-02T02:00:12.066Z,877.75
2017-02-02T02:00:42.096Z,877.7
2017-02-02T02:01:12.125Z,877.73
2017-02-02T02:01:42.457Z,877.67
2017-02-02T02:02:12.189Z,877.67
2017-02-02T02:02:42.218Z,877.67
2017-02-02T02:03:12.252Z,877.64
2017-02-02T02:03:42.280Z,877.65
2017-02-02T02:04:12.310Z,877.67
2017-02-02T02:04:42.343Z,877.68
2017-02-02T02:05:12.371Z,877.66
2017-02-02T02:05:42.403Z,877.62
2017-02-02T02:06:12.431Z,877.61
2017-02-02T02:06:42.465Z,877.61
2017-02-02T02:07:12.492Z,877.66
2017-02-02T02:07:42.536Z,877.65
2017-02-02T02:08:12.557Z,877.66
2017-02-02T02:08:42.586Z,877.61
2017-02-02T02:09:12.626Z,877.64
2017-02-02T02:09:42.647Z,877.63
2017-02-02T02:10:12.678Z,877.64
2017-02-02T02:10:42.708Z,877.55
2017-02-02T02:11:12.739Z,877.6
2017-02-02T02:11:42.770Z,877.56
2017-02-02T02:12:12.800Z,877.48
2017-02-02T02:12:42.830Z,877.56
2017-02-02T02:13:12.893Z,877.56
2017-02-02T02:13:42.894Z,877.55
2017-02-02T02:14:12.923Z,877.57
2017-02-02T02:14:42.953Z,877.58
2017-02-02T02:15:12.984Z,877.59
2017-02-02T02:15:43.015Z,877.6
2017-02-02T02:16:13.047Z,877.6
2017-02-02T02:16:43.076Z,877.63
2017-02-02T02:17:13.108Z,877.6
2017-02-02T02:17:43.137Z,877.58
2017-02-02T02:18:13.167Z,877.54
2017-02-02T02:18:43.197Z,877.55
2017-02-02T02:19:13.229Z,877.59
2017-02-02T02:19:43.260Z,877.55
2017-02-02T02:20:13.292Z,877.58
2017-02-02T02:20:43.328Z,877.58
2017-02-02T02:21:13.355Z,877.57
2017-02-02T02:21:43.386Z,877.6
2017-02-02T02:22:13.414Z,877.6
2017-02-02T02:22:43.447Z,877.56
2017-02-02T02:23:13.477Z,877.49
2017-02-02T02:23:43.507Z,877.47
2017-02-02T02:24:13.538Z,877.42
2017-02-02T02:24:43.568Z,877.47
2017-02-02T02:25:13.597Z,877.45
2017-02-02T02:25:43.634Z,877.37
2017-02-02T02:26:13.660Z,877.37
2017-02-02T02:26:43.689Z,877.46
2017-02-02T02:27:14.022Z,877.38
2017-02-02T02:27:43.752Z,877.46
2017-02-02T02:28:13.781Z,877.4
2017-02-02T02:28:43.814Z,877.4
2017-02-02T02:29:13.843Z,877.41
2017-02-02T02:29:43.874Z,877.39
2017-02-02T02:30:13.905Z,877.39
2017-02-02T02:30:43.937Z,877.35
2017-02-02T02:31:13.968Z,877.42
2017-02-02T02:31:43.996Z,877.43
2017-02-02T02:32:14.028Z,877.43
2017-02-02T02:32:44.058Z,877.4
2017-02-02T02:33:14.088Z,877.41
2017-02-02T02:33:44.117Z,877.45
2017-02-02T02:34:14.150Z,877.45
2017-02-02T02:34:44.207Z,877.49
2017-02-02T02:35:14.212Z,877.5
2017-02-02T02:35:44.242Z,877.47
2017-02-02T02:36:14.276Z,877.52
2017-02-02T02:36:44.303Z,877.56
2017-02-02T02:37:14.335Z,877.53
2017-02-02T02:37:44.366Z,877.59
2017-02-02T02:38:14.395Z,877.57
2017-02-02T02:38:44.425Z,877.61
2017-02-02T02:39:14.459Z,877.57
2017-02-02T02:39:44.487Z,877.64
2017-02-02T02:40:14.524Z,877.58
2017-02-02T02:40:44.549Z,877.59
2017-02-02T02:41:14.579Z,877.55
2017-02-02T02:41:44.609Z,877.56
2017-02-02T02:42:14.641Z,877.54
2017-02-02T02:42:44.670Z,877.48
2017-02-02T02:43:14.702Z,877.5
2017-02-02T02:43:44.737Z,877.46
2017-02-02T02:44:14.763Z,877.49
2017-02-02T02:44:44.793Z,877.43
2017-02-02T02:45:14.823Z,877.48
2017-02-02T02:45:44.855Z,877.51
2017-02-02T02:46:14.886Z,877.55
2017-02-02T02:46:44.916Z,877.46
2017-02-02T02:47:14.947Z,877.47
2017-02-02T02:47:45.281Z,877.47
2017-02-02T02:48:15.008Z,877.45
2017-02-02T02:48:45.037Z,877.44
2017-02-02T02:49:15.068Z,877.45
2017-02-02T02:49:45.100Z,877.44
2017-02-02T02:50:15.130Z,877.43
2017-02-02T02:50:45.160Z,877.41
2017-02-02T02:51:15.198Z,877.37
2017-02-02T02:51:45.221Z,877.4
2017-02-02T02:52:15.280Z,877.39
2017-02-02T02:52:45.283Z,877.37
2017-02-02T02:53:15.314Z,877.47
2017-02-02T02:53:45.346Z,877.49
2017-02-02T02:54:15.375Z,877.5
2017-02-02T02:54:45.405Z,877.52
2017-02-02T02:55:15.435Z,877.52
2017-02-02T02:55:45.468Z,877.53
2017-02-02T02:56:15.497Z,877.57
2017-02-02T02:56:45.528Z,877.55
2017-02-02T02:57:15.561Z,877.53
2017-02-02T02:57:45.592Z,877.54
2017-02-02T02:58:15.620Z,877.55
2017-02-02T02:58:45.661Z,877.5
2017-02-02T02:59:15.681Z,877.52
2017-02-02T02:59:45.713Z,877.48
2017-02-02T03:00:15.751Z,877.48
2017-02-02T03:00:45.775Z,877.5
2017-02-02T03:01:15.805Z,877.51
2017-02-02T03:01:45.835Z,877.47
2017-02-02T03:02:15.866Z,877.44
2017-02-02T03:02:45.896Z,877.37
2017-02-02T03:03:16.278Z,877.43
2017-02-02T03:03:45.959Z,877.37
2017-02-02T03:04:15.987Z,877.38
2017-02-02T03:04:46.019Z,877.4
2017-02-02T03:05:16.048Z,877.44
2017-02-02T03:05:46.079Z,877.42
2017-02-02T03:06:16.109Z,877.41
2017-02-02T03:06:46.143Z,877.42
2017-02-02T03:07:16.171Z,877.38
2017-02-02T03:07:46.202Z,877.44
2017-02-02T03:08:16.231Z,877.46
2017-02-02T03:08:46.265Z,877.39
2017-02-02T03:09:16.295Z,877.4
2017-02-02T03:09:46.325Z,877.48
2017-02-02T03:10:16.361Z,877.45
2017-02-02T03:10:46.386Z,877.45
2017-02-02T03:11:16.418Z,877.39
2017-02-02T03:11:46.446Z,877.36
2017-02-02T03:12:16.477Z,877.38
2017-02-02T03:12:46.509Z,877.39
2017-02-02T03:13:16.538Z,877.38
2017-02-02T03:13:46.568Z,877.39
2017-02-02T03:14:16.599Z,877.34
2017-02-02T03:14:46.632Z,877.27
2017-02-02T03:15:16.660Z,877.29
2017-02-02T03:15:46.692Z,877.29
2017-02-02T03:16:16.720Z,877.24
2017-02-02T03:16:46.751Z,877.22
2017-02-02T03:17:16.786Z,877.22
2017-02-02T03:17:46.813Z,877.21
2017-02-02T03:18:16.842Z,877.2
2017-02-02T03:18:47.123Z,877.22
2017-02-02T03:19:16.904Z,877.24
2017-02-02T03:19:46.939Z,877.29
2017-02-02T03:20:16.968Z,877.32
2017-02-02T03:20:46.997Z,877.31
2017-02-02T03:21:17.027Z,877.27
2017-02-02T03:21:47.060Z,877.26
2017-02-02T03:22:17.089Z,877.28
2017-02-02T03:22:47.120Z,877.22
2017-02-02T03:23:17.154Z,877.24
2017-02-02T03:23:47.179Z,877.21
2017-02-02T03:24:17.215Z,877.21
2017-02-02T03:24:47.243Z,877.21
2017-02-02T03:25:17.276Z,877.2
2017-02-02T03:25:47.305Z,877.18
2017-02-02T03:26:17.337Z,877.2
2017-02-02T03:26:47.363Z,877.18
2017-02-02T03:27:17.393Z,877.15
2017-02-02T03:27:47.426Z,877.11
2017-02-02T03:28:17.455Z,877.08
2017-02-02T03:28:47.487Z,877.11
2017-02-02T03:29:17.518Z,877.06
2017-02-02T03:29:47.548Z,877.04
2017-02-02T03:30:17.580Z,877
2017-02-02T03:30:47.607Z,877
2017-02-02T03:31:17.639Z,877.02
2017-02-02T03:31:47.668Z,877.02
2017-02-02T03:32:17.699Z,877.01
2017-02-02T03:32:47.730Z,877.02
2017-02-02T03:33:17.759Z,876.97
2017-02-02T03:33:47.792Z,877
2017-02-02T03:34:18.172Z,876.98
2017-02-02T03:34:47.855Z,877
2017-02-02T03:35:17.885Z,876.98
2017-02-02T03:35:47.914Z,877.04
2017-02-02T03:36:17.945Z,876.99
2017-02-02T03:36:47.975Z,877
2017-02-02T03:37:18.005Z,877
2017-02-02T03:37:48.039Z,877.03
2017-02-02T03:38:18.066Z,877.03
2017-02-02T03:38:48.097Z,877.05
2017-02-02T03:39:18.127Z,877.08
2017-02-02T03:39:48.158Z,877.08
2017-02-02T03:40:18.190Z,877.15
2017-02-02T03:40:48.219Z,877.14
2017-02-02T03:41:18.253Z,877.19
2017-02-02T03:41:48.280Z,877.17
2017-02-02T03:42:18.314Z,877.17
2017-02-02T03:42:48.342Z,877.17
2017-02-02T03:43:18.371Z,877.12
2017-02-02T03:43:48.401Z,877.12
2017-02-02T03:44:18.434Z,877.06
2017-02-02T03:44:48.463Z,877.05
2017-02-02T03:45:18.494Z,877.04
2017-02-02T03:45:48.532Z,877
2017-02-02T03:46:18.557Z,876.95
2017-02-02T03:46:48.588Z,876.93
2017-02-02T03:47:18.645Z,876.93
2017-02-02T03:47:48.649Z,876.92
2017-02-02T03:48:18.679Z,876.89
2017-02-02T03:48:48.707Z,876.95
2017-02-02T03:49:18.744Z,876.91
2017-02-02T03:49:48.770Z,876.87
2017-02-02T03:50:18.799Z,876.83
2017-02-02T03:50:48.830Z,876.83
2017-02-02T03:51:18.865Z,876.82
2017-02-02T03:51:48.895Z,876.79
2017-02-02T03:52:18.924Z,876.75
2017-02-02T03:52:48.952Z,876.74
2017-02-02T03:53:18.987Z,876.72
2017-02-02T03:53:49.014Z,876.75
2017-02-02T03:54:19.048Z,876.71
2017-02-02T03:54:49.377Z,876.7
2017-02-02T03:55:19.106Z,876.72
2017-02-02T03:55:49.137Z,876.68
2017-02-02T03:56:19.167Z,876.68
2017-02-02T03:56:49.207Z,876.67
2017-02-02T03:57:19.227Z,876.62
2017-02-02T03:57:49.258Z,876.63
2017-02-02T03:58:19.289Z,876.56
2017-02-02T03:58:49.317Z,876.61
2017-02-02T03:59:19.348Z,876.64
2017-02-02T03:59:49.379Z,876.64
2017-02-02T04:00:19.410Z,876.6
2017-02-02T04:00:49.439Z,876.66
2017-02-02T04:01:19.472Z,876.69
2017-02-02T04:01:49.501Z,876.7
2017-02-02T04:02:19.534Z,876.68
2017-02-02T04:02:49.562Z,876.62
2017-02-02T04:03:19.593Z,876.67
2017-02-02T04:03:49.625Z,876.68
2017-02-02T04:04:19.655Z,876.71
2017-02-02T04:04:49.686Z,876.69
2017-02-02T04:05:19.716Z,876.64
2017-02-02T04:05:49.747Z,876.69
2017-02-02T04:06:19.777Z,876.65
2017-02-02T04:06:49.806Z,876.65
2017-02-02T04:07:19.836Z,876.61
2017-02-02T04:07:49.867Z,876.65
2017-02-02T04:08:19.896Z,876.57
2017-02-02T04:08:49.930Z,876.61
2017-02-02T04:09:19.959Z,876.62
2017-02-02T04:09:49.991Z,876.65
2017-02-02T04:10:20.025Z,876.65
2017-02-02T04:10:50.058Z,876.65
2017-02-02T04:11:20.081Z,876.66
2017-02-02T04:11:50.115Z,876.66
2017-02-02T04:12:20.146Z,876.67
2017-02-02T04:12:50.174Z,876.7
2017-02-02T04:13:20.207Z,876.71
2017-02-02T04:13:50.237Z,876.75
2017-02-02T04:14:20.266Z,876.78
2017-02-02T04:14:50.297Z,876.8
2017-02-02T04:15:20.329Z,876.75
2017-02-02T04:15:50.359Z,876.77
2017-02-02T04:16:20.387Z,876.7
2017-02-02T04:16:50.419Z,876.73
2017-02-02T04:17:20.451Z,876.72
2017-02-02T04:17:50.481Z,876.64
2017-02-02T04:18:20.511Z,876.62
2017-02-02T04:18:50.541Z,876.64
2017-02-02T04:19:20.571Z,876.56
2017-02-02T04:19:50.602Z,876.62
2017-02-02T04:20:20.884Z,876.63
2017-02-02T04:20:50.664Z,876.63
2017-02-02T04:21:20.694Z,876.55
2017-02-02T04:21:50.726Z,876.55
2017-02-02T04:22:20.757Z,876.56
2017-02-02T04:22:50.785Z,876.56
2017-02-02T04:23:20.816Z,876.54
2017-02-02T04:23:50.847Z,876.54
2017-02-02T04:24:20.876Z,876.46
2017-02-02T04:24:50.908Z,876.47
2017-02-02T04:25:20.939Z,876.39
2017-02-02T04:25:50.968Z,876.32
2017-02-02T04:26:20.999Z,876.31
2017-02-02T04:26:51.030Z,876.3
2017-02-02T04:27:21.059Z,876.29
2017-02-02T04:27:51.092Z,876.3
2017-02-02T04:28:21.121Z,876.28
2017-02-02T04:28:51.153Z,876.26
2017-02-02T04:29:21.183Z,876.29
2017-02-02T04:29:51.214Z,876.23
2017-02-02T04:30:21.241Z,876.26
2017-02-02T04:30:51.275Z,876.27
2017-02-02T04:31:21.307Z,876.26
2017-02-02T04:31:51.336Z,876.24
2017-02-02T04:32:21.364Z,876.19
2017-02-02T04:32:51.397Z,876.22
2017-02-02T04:33:21.429Z,876.22
2017-02-02T04:33:51.458Z,876.22
2017-02-02T04:34:21.489Z,876.2
2017-02-02T04:34:51.519Z,876.2
2017-02-02T04:35:21.551Z,876.2
2017-02-02T04:35:51.580Z,876.16
2017-02-02T04:36:21.613Z,876.18
2017-02-02T04:36:51.640Z,876.12
2017-02-02T04:37:21.675Z,876.16
2017-02-02T04:37:51.700Z,876.16
2017-02-02T04:38:21.732Z,876.12
2017-02-02T04:38:51.763Z,876.14
2017-02-02T04:39:21.794Z,876.1
2017-02-02T04:39:51.824Z,876.08
2017-02-02T04:40:21.855Z,876.08
2017-02-02T04:40:51.884Z,875.99
2017-02-02T04:41:21.916Z,876
2017-02-02T04:41:51.945Z,875.94
2017-02-02T04:42:21.976Z,875.92
2017-02-02T04:42:52.005Z,875.89
2017-02-02T04:43:22.038Z,875.86
2017-02-02T04:43:52.070Z,875.83
2017-02-02T04:44:22.096Z,875.77
2017-02-02T04:44:52.129Z,875.73
2017-02-02T04:45:22.161Z,875.7
2017-02-02T04:45:52.541Z,875.68
2017-02-02T04:46:22.220Z,875.65
2017-02-02T04:46:52.252Z,875.61
2017-02-02T04:47:22.307Z,875.61
2017-02-02T04:47:52.314Z,875.61
2017-02-02T04:48:22.344Z,875.59
2017-02-02T04:48:52.373Z,875.6
2017-02-02T04:49:22.404Z,875.6
2017-02-02T04:49:52.433Z,875.62
2017-02-02T04:50:22.464Z,875.6
2017-02-02T04:50:52.495Z,875.59
2017-02-02T04:51:22.526Z,875.55
2017-02-02T04:51:52.558Z,875.55
2017-02-02T04:52:22.587Z,875.49
2017-02-02T04:52:52.615Z,875.55
2017-02-02T04:53:22.645Z,875.5
2017-02-02T04:53:52.678Z,875.51
2017-02-02T04:54:22.708Z,875.41
2017-02-02T04:54:52.738Z,875.43
2017-02-02T04:55:22.770Z,875.35
2017-02-02T04:55:52.800Z,875.37
2017-02-02T04:56:22.829Z,875.36
2017-02-02T04:56:52.868Z,875.38
2017-02-02T04:57:22.891Z,875.36
2017-02-02T04:57:52.923Z,875.35
2017-02-02T04:58:22.953Z,875.33
2017-02-02T04:58:52.984Z,875.33
2017-02-02T04:59:23.013Z,875.28
2017-02-02T04:59:53.047Z,875.25
2017-02-02T05:00:23.076Z,875.25
2017-02-02T05:00:53.105Z,875.23
2017-02-02T05:01:23.135Z,875.26
2017-02-02T05:01:53.165Z,875.25
2017-02-02T05:02:23.194Z,875.25
2017-02-02T05:02:53.227Z,875.19
2017-02-02T05:03:23.259Z,875.19
2017-02-02T05:03:53.287Z,875.17
2017-02-02T05:04:23.315Z,875.17
2017-02-02T05:04:53.349Z,875.18
2017-02-02T05:05:23.378Z,875.2
2017-02-02T05:05:53.408Z,875.2
2017-02-02T05:06:23.439Z,875.19
2017-02-02T05:06:53.469Z,875.17
2017-02-02T05:07:23.502Z,875.2
2017-02-02T05:07:53.530Z,875.23
2017-02-02T05:08:23.565Z,875.24
2017-02-02T05:08:53.593Z,875.27
2017-02-02T05:09:23.620Z,875.26
2017-02-02T05:09:53.654Z,875.32
2017-02-02T05:10:23.683Z,875.35
2017-02-02T05:10:53.712Z,875.32
2017-02-02T05:11:24.092Z,875.35
2017-02-02T05:11:53.776Z,875.36
2017-02-02T05:12:23.805Z,875.35
2017-02-02T05:12:53.835Z,875.37
2017-02-02T05:13:23.867Z,875.32
2017-02-02T05:13:53.896Z,875.32
2017-02-02T05:14:23.925Z,875.26
2017-02-02T05:14:53.956Z,875.23
2017-02-02T05:15:23.987Z,875.29
2017-02-02T05:15:54.017Z,875.23
2017-02-02T05:16:24.049Z,875.26
2017-02-02T05:16:54.077Z,875.26
2017-02-02T05:17:24.113Z,875.17
2017-02-02T05:17:54.139Z,875.18
2017-02-02T05:18:24.169Z,875.16
2017-02-02T05:18:54.204Z,875.15
2017-02-02T05:19:24.233Z,875.17
2017-02-02T05:19:54.260Z,875.15
2017-02-02T05:20:24.292Z,875.15
2017-02-02T05:20:54.322Z,875.13
2017-02-02T05:21:24.352Z,875.16
2017-02-02T05:21:54.383Z,875.18
2017-02-02T05:22:24.413Z,875.14
2017-02-02T05:22:54.444Z,875.17
2017-02-02T05:23:24.476Z,875.17
2017-02-02T05:23:54.506Z,875.2
2017-02-02T05:24:24.536Z,875.23
2017-02-02T05:24:54.565Z,875.23
2017-02-02T05:25:24.596Z,875.24
2017-02-02T05:25:54.625Z,875.28
2017-02-02T05:26:24.654Z,875.25
2017-02-02T05:26:54.686Z,875.22
2017-02-02T05:27:24.716Z,875.25
2017-02-02T05:27:54.747Z,875.21
2017-02-02T05:28:24.784Z,875.17
2017-02-02T05:28:54.808Z,875.15
2017-02-02T05:29:24.845Z,875.14
2017-02-02T05:29:54.868Z,875.16
2017-02-02T05:30:24.899Z,875.12
2017-02-02T05:30:54.928Z,875.14
2017-02-02T05:31:24.959Z,875.08
2017-02-02T05:31:55.238Z,875.12
2017-02-02T05:32:25.019Z,875.1
2017-02-02T05:32:55.047Z,875.07
2017-02-02T05:33:25.079Z,875.11
2017-02-02T05:33:55.111Z,875.06
2017-02-02T05:34:25.142Z,875.02
2017-02-02T05:34:55.168Z,875.01
2017-02-02T05:35:25.204Z,874.96
2017-02-02T05:35:55.234Z,874.96
2017-02-02T05:36:25.262Z,874.92
2017-02-02T05:36:55.291Z,874.89
2017-02-02T05:37:25.324Z,874.93
2017-02-02T05:37:55.354Z,874.92
2017-02-02T05:38:25.385Z,874.9
2017-02-02T05:38:55.414Z,874.92
2017-02-02T05:39:25.443Z,874.93
2017-02-02T05:39:55.475Z,874.95
2017-02-02T05:40:25.506Z,874.92
2017-02-02T05:40:55.534Z,874.97
2017-02-02T05:41:25.564Z,875.02
2017-02-02T05:41:55.597Z,875.02
2017-02-02T05:42:25.627Z,875.04
2017-02-02T05:42:55.656Z,875.03
2017-02-02T05:43:25.687Z,875.07
2017-02-02T05:43:55.719Z,875.05
2017-02-02T05:44:25.752Z,875.09
2017-02-02T05:44:55.777Z,875.13
2017-02-02T05:45:25.808Z,875.14
2017-02-02T05:45:55.842Z,875.16
2017-02-02T05:46:25.867Z,875.15
2017-02-02T05:46:55.898Z,875.2
2017-02-02T05:47:26.185Z,875.18
2017-02-02T05:47:55.961Z,875.18
2017-02-02T05:48:25.990Z,875.19
2017-02-02T05:48:56.026Z,875.19
2017-02-02T05:49:26.053Z,875.16
2017-02-02T05:49:56.083Z,875.16
2017-02-02T05:50:26.111Z,875.14
2017-02-02T05:50:56.147Z,875.16
2017-02-02T05:51:26.173Z,875.14
2017-02-02T05:51:56.202Z,875.12
2017-02-02T05:52:26.232Z,875.19
2017-02-02T05:52:56.267Z,875.2
2017-02-02T05:53:26.293Z,875.14
2017-02-02T05:53:56.327Z,875.17
2017-02-02T05:54:26.354Z,875.18
2017-02-02T05:54:56.384Z,875.18
2017-02-02T05:55:26.417Z,875.21
2017-02-02T05:55:56.447Z,875.21
2017-02-02T05:56:26.476Z,875.19
2017-02-02T05:56:56.506Z,875.21
2017-02-02T05:57:26.538Z,875.2
2017-02-02T05:57:56.566Z,875.19
2017-02-02T05:58:26.595Z,875.15
2017-02-02T05:58:56.625Z,875.06
2017-02-02T05:59:26.661Z,875.11
2017-02-02T05:59:56.687Z,875.06
2017-02-02T06:00:26.716Z,875.08
2017-02-02T06:00:56.749Z,875.06
2017-02-02T06:01:26.778Z,875.02
2017-02-02T06:01:56.811Z,875.01
2017-02-02T06:02:26.837Z,874.98
2017-02-02T06:02:57.120Z,874.96
2017-02-02T06:03:26.900Z,874.96
2017-02-02T06:03:56.930Z,874.93
2017-02-02T06:04:26.963Z,874.9
2017-02-02T06:04:56.990Z,874.87
2017-02-02T06:05:27.021Z,874.82
2017-02-02T06:05:57.050Z,874.78
2017-02-02T06:06:27.079Z,874.77
2017-02-02T06:06:57.115Z,874.72
2017-02-02T06:07:27.144Z,874.7
2017-02-02T06:07:57.171Z,874.68
2017-02-02T06:08:27.202Z,874.65
2017-02-02T06:08:57.236Z,874.62
2017-02-02T06:09:27.263Z,874.62
2017-02-02T06:09:57.296Z,874.59
2017-02-02T06:10:27.324Z,874.61
2017-02-02T06:10:57.355Z,874.58
2017-02-02T06:11:27.386Z,874.6
2017-02-02T06:11:57.416Z,874.64
2017-02-02T06:12:27.444Z,874.65
2017-02-02T06:12:57.475Z,874.66
2017-02-02T06:13:27.506Z,874.68
2017-02-02T06:13:57.536Z,874.68
2017-02-02T06:14:27.578Z,874.67
2017-02-02T06:14:57.594Z,874.67
2017-02-02T06:15:27.629Z,874.68
2017-02-02T06:15:57.657Z,874.71